Latest Weather Observations for Groote Eylandt Airport

IDD60801

Issued at 7:31 am CST Sunday 2 August 2015 (issued every 30 minutes, with the page automatically refreshed every 10 minutes)

About weather observations | Map of weather stations | Latest weather observations for NT | Other Formats
Station Details ID: 014518 Name: GROOTE EYLANDT AIRPORT Lat: -13.97 Lon: 136.46 Height: 13.7 m
Data from the previous 72 hours. | See also: Recent months at Groote Eylandt Airport
Date/Time
CST
Temp
°C
App
Temp
°C
Dew
Point
Rel
Hum
%
Delta-T
°C
Wind Press
QNH
hPa
Press
MSL
hPa
Rain
since 9 am
mm
Dir
 
Spd
km/h
Gust
km/h
Spd
kts
Gust
kts
02/07:30am 18.2 20.4 16.4 89 1.1 CALM 0 0 0 0 1017.0 1017.0 0.0
02/07:00am 16.6 18.3 15.1 91 0.9 CALM 0 0 0 0 1016.7 1016.7 0.0
02/06:30am 16.5 18.2 15.2 92 0.8 CALM 0 0 0 0 1016.3 1016.3 0.0
02/06:00am 16.5 18.1 15.0 91 0.9 CALM 0 0 0 0 1016.0 1016.0 0.0
02/05:30am 16.8 17.4 15.3 91 0.9 E 6 6 3 3 1015.8 1015.8 0.0
02/05:00am 16.4 18.0 14.9 91 0.9 CALM 0 0 0 0 1015.6 1015.6 0.0
02/04:30am 16.9 18.6 15.2 90 1.0 CALM 0 0 0 0 1015.5 1015.5 0.0
02/04:00am 16.8 18.0 15.0 89 1.0 E 2 6 1 3 1015.4 1015.4 0.0
02/03:30am 16.8 17.7 15.2 90 0.9 E 4 6 2 3 1015.6 1015.6 0.0
02/03:00am 16.5 17.6 15.5 94 0.6 SE 4 6 2 3 1015.7 1015.7 0.0
02/02:30am 16.2 16.8 15.2 94 0.6 SSE 6 7 3 4 1015.8 1015.8 0.0
02/02:00am 16.6 17.8 15.8 95 0.5 S 4 7 2 4 1016.0 1016.0 0.0
02/01:30am 16.9 18.8 15.8 93 0.6 CALM 0 0 0 0 1016.1 1016.1 0.0
02/01:00am 17.6 19.6 16.1 91 0.9 CALM 0 0 0 0 1016.5 1016.5 0.0
02/12:30am 17.9 20.1 16.6 92 0.8 CALM 0 0 0 0 1016.6 1016.6 0.0
02/12:00am 18.4 19.3 16.7 90 1.0 E 7 7 4 4 1016.3 1016.3 0.0
 
Date/Time
CST
Temp
°C
App
Temp
°C
Dew
Point
Rel
Hum
%
Delta-T
°C
Wind Press
QNH
hPa
Press
MSL
hPa
Rain
since 9 am
mm
Dir
 
Spd
km/h
Gust
km/h
Spd
kts
Gust
kts
01/11:30pm 19.0 20.3 17.0 88 1.2 E 6 7 3 4 1016.3 1016.3 0.0
01/11:00pm 19.5 21.7 17.5 88 1.2 E 2 6 1 3 1016.4 1016.4 0.0
01/10:30pm 20.0 21.4 17.4 85 1.6 ESE 6 7 3 4 1016.6 1016.6 0.0
01/10:00pm 20.4 22.2 18.2 87 1.4 SE 6 7 3 4 1016.5 1016.5 0.0
01/09:30pm 21.3 23.2 18.9 86 1.5 ESE 7 9 4 5 1016.4 1016.4 0.0
01/09:00pm 21.8 23.8 18.8 83 1.9 ESE 6 9 3 5 1016.1 1016.1 0.0
01/08:30pm 21.9 23.7 18.3 80 2.2 SE 6 9 3 5 1015.7 1015.7 0.0
01/08:00pm 21.9 23.3 17.3 75 2.8 ESE 6 7 3 4 1015.4 1015.4 0.0
01/07:30pm 23.1 24.4 17.1 69 3.7 E 6 9 3 5 1015.1 1015.1 0.0
01/07:00pm 24.1 24.8 17.1 65 4.3 ESE 9 11 5 6 1014.6 1014.6 0.0
01/06:30pm 25.1 25.7 16.8 60 5.1 ESE 9 15 5 8 1014.3 1014.3 0.0
01/06:00pm 26.2 26.3 16.4 54 6.0 ESE 11 19 6 10 1014.2 1014.1 0.0
01/05:30pm 27.2 26.3 14.9 47 7.4 ESE 13 19 7 10 1014.0 1013.9 0.0
01/05:00pm 28.0 27.2 15.0 45 7.9 ESE 13 20 7 11 1013.9 1013.8 0.0
01/04:30pm 28.5 26.5 14.0 41 8.7 E 17 24 9 13 1013.8 1013.7 0.0
01/04:00pm 29.5 27.7 13.3 37 9.6 E 15 28 8 15 1013.5 1013.4 0.0
01/03:30pm 28.4 27.8 13.5 40 8.8 SE 9 17 5 9 1013.7 1013.6 0.0
01/03:00pm 29.3 28.2 14.3 40 9.1 E 13 22 7 12 1013.9 1013.8 0.0
01/02:30pm 29.4 28.2 15.1 41 8.7 E 15 28 8 15 1014.1 1014.0 0.0
01/02:00pm 29.3 27.8 15.4 42 8.5 ENE 17 26 9 14 1014.6 1014.6 0.0
01/01:30pm 29.2 27.7 16.4 46 8.0 E 19 28 10 15 1015.0 1015.0 0.0
01/01:00pm 29.2 28.1 17.7 50 7.3 ESE 20 30 11 16 1015.3 1015.3 0.0
01/12:30pm 28.5 27.0 17.7 52 6.8 ENE 22 30 12 16 1015.5 1015.5 0.0
01/12:00pm 28.0 26.5 17.8 54 6.5 E 22 32 12 17 1016.0 1016.0 0.0
01/11:30am 27.8 26.4 18.8 58 5.8 E 24 33 13 18 1016.5 1016.5 0.0
01/11:00am 28.1 26.5 19.1 58 5.8 ENE 26 33 14 18 1016.7 1016.7 0.0
01/10:30am 27.2 25.8 18.8 60 5.4 E 24 32 13 17 1016.9 1016.9 0.0
01/10:00am 27.6 26.5 18.6 58 5.8 E 22 37 12 20 1016.9 1016.9 0.0
01/09:30am 26.6 25.4 17.1 56 5.9 E 19 30 10 16 1016.9 1016.9 0.0
01/09:00am 25.0 25.7 17.0 61 4.9 ESE 9 20 5 11 1016.6 1016.6 0.0
01/08:30am 22.7 25.0 19.5 82 2.0 ESE 6 9 3 5 1016.3 1016.3 0.0
01/08:00am 20.1 22.8 17.7 86 1.5 CALM 0 0 0 0 1016.0 1016.0 0.0
01/07:30am 17.0 19.0 16.0 94 0.6 CALM 0 6 0 3 1015.7 1015.7 0.0
01/07:00am 15.7 16.2 14.9 95 0.5 E 6 7 3 4 1015.4 1015.4 0.0
01/06:30am 15.5 16.0 14.9 96 0.3 E 6 6 3 3 1015.2 1015.2 0.0
01/06:00am 15.4 15.8 14.8 96 0.3 E 6 7 3 4 1015.0 1015.0 0.0
01/05:30am 15.8 16.4 15.3 97 0.3 ENE 6 9 3 5 1014.9 1014.9 0.0
01/05:00am 16.1 17.9 15.6 97 0.3 CALM 0 0 0 0 1014.5 1014.5 0.0
01/04:30am 16.1 17.9 15.6 97 0.3 CALM 0 0 0 0 1014.3 1014.3 0.0
01/04:00am 16.5 18.4 15.7 95 0.5 CALM 0 0 0 0 1014.4 1014.4 0.0
01/03:30am 16.9 18.6 16.1 95 0.5 ESE 2 6 1 3 1014.4 1014.4 0.0
01/03:00am 17.5 18.8 17.2 98 0.2 E 6 7 3 4 1014.5 1014.5 0.0
01/02:30am 17.3 18.7 16.5 95 0.5 SE 4 7 2 4 1014.9 1014.9 0.0
01/02:00am 18.0 20.5 17.2 95 0.5 CALM 0 0 0 0 1014.9 1014.9 0.0
01/01:30am 18.7 21.4 17.7 94 0.6 CALM 0 0 0 0 1015.1 1015.1 0.0
01/01:00am 19.4 21.5 18.1 92 0.8 ESE 4 7 2 4 1015.3 1015.3 0.0
01/12:30am 20.5 22.4 19.0 91 0.9 E 7 11 4 6 1015.5 1015.5 0.0
01/12:00am 21.4 23.2 19.5 89 1.2 E 9 11 5 6 1015.5 1015.5 0.0
 
Date/Time
CST
Temp
°C
App
Temp
°C
Dew
Point
Rel
Hum
%
Delta-T
°C
Wind Press
QNH
hPa
Press
MSL
hPa
Rain
since 9 am
mm
Dir
 
Spd
km/h
Gust
km/h
Spd
kts
Gust
kts
31/11:30pm 21.7 24.0 19.8 89 1.2 E 7 11 4 6 1015.5 1015.5 0.0
31/11:00pm 21.9 23.9 20.0 89 1.2 E 9 13 5 7 1015.6 1015.6 0.0
31/10:30pm 22.2 23.6 20.3 89 1.2 E 13 15 7 8 1015.7 1015.7 0.0
31/10:00pm 21.1 22.7 19.2 89 1.2 E 9 11 5 6 1015.7 1015.7 0.0
31/09:30pm 21.3 23.7 18.9 86 1.5 E 4 7 2 4 1015.8 1015.8 0.0
31/09:00pm 21.9 24.1 19.1 84 1.8 ESE 6 9 3 5 1015.6 1015.6 0.0
31/08:30pm 22.3 24.5 19.1 82 2.0 ESE 6 7 3 4 1015.3 1015.3 0.0
31/08:00pm 23.2 25.4 19.1 78 2.6 ESE 6 7 3 4 1014.9 1014.9 0.0
31/07:30pm 24.0 26.1 19.3 75 3.0 ESE 7 11 4 6 1014.6 1014.6 0.0
31/07:00pm 24.5 26.1 19.1 72 3.4 ESE 9 15 5 8 1014.4 1014.4 0.0
31/06:30pm 25.1 26.6 18.8 68 4.0 ESE 9 15 5 8 1014.1 1014.1 0.0
31/06:00pm 26.1 26.3 18.5 63 4.8 ESE 15 22 8 12 1013.9 1013.9 0.0
31/05:30pm 27.0 27.3 17.8 57 5.8 ESE 13 20 7 11 1013.7 1013.7 0.0
31/05:00pm 27.4 26.6 17.0 53 6.5 ESE 17 24 9 13 1013.4 1013.4 0.0
31/04:30pm 27.8 27.1 16.4 50 7.1 ESE 15 26 8 14 1013.2 1013.2 0.0
31/04:00pm 28.5 26.2 15.8 46 7.8 E 22 33 12 18 1013.1 1013.1 0.0
31/03:30pm 28.8 26.0 14.2 40 8.8 ESE 22 33 12 18 1013.2 1013.2 0.0
31/03:00pm 29.3 26.5 13.1 37 9.6 E 20 30 11 16 1013.4 1013.4 0.0
31/02:30pm 29.4 26.6 13.2 37 9.6 E 20 32 11 17 1013.6 1013.6 0.0
31/02:00pm 30.1 26.2 12.1 33 10.5 ESE 24 37 13 20 1013.9 1013.9 0.0
31/01:30pm 29.2 24.9 10.8 32 10.5 ESE 24 39 13 21 1014.4 1014.4 0.0
31/01:00pm 29.3 23.8 10.4 31 10.7 E 30 46 16 25 1014.8 1014.8 0.0
31/12:36pm 29.6 24.7 12.5 35 10.0 E 30 52 16 28 1015.1 1015.1 0.0
31/12:30pm 29.4 26.2 13.2 37 9.6 ESE 22 41 12 22 1015.2 1015.2 0.0
31/12:00pm 29.2 26.5 14.6 41 8.8 ESE 22 35 12 19 1015.6 1015.6 0.0
31/11:30am 28.6 26.2 14.4 41 8.6 ESE 20 35 11 19 1015.9 1015.9 0.0
31/11:00am 28.4 24.6 14.6 43 8.3 E 28 41 15 22 1016.2 1016.2 0.0
31/10:30am 27.9 25.1 14.2 43 8.2 ESE 22 35 12 19 1016.6 1016.6 0.0
31/10:00am 28.3 26.4 15.2 44 8.0 ESE 19 30 10 16 1016.7 1016.7 0.0
31/09:30am 27.0 26.0 16.6 53 6.4 SE 17 24 9 13 1017.0 1017.0 0.0
31/09:00am 26.3 25.4 16.8 56 5.9 ESE 17 28 9 15 1017.0 1017.0 0.0
31/08:30am 24.7 26.0 18.4 68 4.0 SE 9 15 5 8 1016.8 1016.8 0.0
31/08:00am 23.0 24.8 18.7 77 2.7 ESE 7 9 4 5 1016.5 1016.5 0.0
31/07:30am 20.0 23.0 18.5 91 0.9 CALM 0 0 0 0 1016.3 1016.3 0.0
31/07:00am 18.2 19.7 17.6 96 0.4 ENE 6 6 3 3 1016.0 1016.0 0.0
31/06:30am 18.3 19.8 17.7 96 0.4 ENE 6 7 3 4 1015.8 1015.8 0.0
31/06:00am 18.6 20.5 17.6 94 0.6 ENE 4 6 2 3 1015.7 1015.7 0.0
31/05:30am 19.3 21.2 18.6 96 0.4 E 6 7 3 4 1015.6 1015.6 0.0
31/05:00am 19.3 21.2 18.5 95 0.5 ESE 6 7 3 4 1015.4 1015.4 0.0
31/04:30am 19.5 22.7 18.8 96 0.4 CALM 0 0 0 0 1015.7 1015.7 0.0
31/04:00am 19.7 23.0 19.0 96 0.4 CALM 0 0 0 0 1015.8 1015.8 0.0
31/03:30am 19.9 23.2 19.1 95 0.5 CALM 0 0 0 0 1015.9 1015.9 0.0
31/03:00am 20.4 23.7 19.1 92 0.8 CALM 0 0 0 0 1016.1 1016.1 0.0
31/02:30am 21.1 23.1 19.2 89 1.2 E 7 9 4 5 1016.4 1016.4 0.0
31/02:00am 21.5 23.7 19.6 89 1.2 E 7 11 4 6 1016.6 1016.6 0.0
31/01:30am 21.9 23.8 19.8 88 1.3 E 9 11 5 6 1016.9 1016.9 0.0
31/01:00am 22.2 24.2 19.9 87 1.5 E 9 13 5 7 1017.2 1017.2 0.0
31/12:30am 22.3 24.2 19.8 86 1.6 E 9 13 5 7 1017.3 1017.3 0.0
31/12:00am 22.6 24.2 19.9 85 1.7 E 11 17 6 9 1017.4 1017.4 0.0
 
Date/Time
CST
Temp
°C
App
Temp
°C
Dew
Point
Rel
Hum
%
Delta-T
°C
Wind Press
QNH
hPa
Press
MSL
hPa
Rain
since 9 am
mm
Dir
 
Spd
km/h
Gust
km/h
Spd
kts
Gust
kts
30/11:30pm 22.7 24.7 20.0 85 1.7 E 9 13 5 7 1017.5 1017.5 0.0
30/11:00pm 22.9 24.5 19.9 83 1.9 ESE 11 15 6 8 1017.6 1017.6 0.0
30/10:30pm 23.2 24.8 20.0 82 2.1 ESE 11 19 6 10 1017.8 1017.8 0.0
30/10:00pm 23.4 25.4 20.0 81 2.2 ESE 9 15 5 8 1017.9 1017.9 0.0
30/09:30pm 23.6 25.6 19.9 80 2.4 E 9 13 5 7 1018.0 1018.0 0.0
30/09:00pm 23.6 25.9 19.9 80 2.4 ESE 7 11 4 6 1017.9 1017.9 0.0
30/08:30pm 23.9 25.9 20.0 79 2.5 ESE 9 15 5 8 1017.6 1017.6 0.0
30/08:00pm 24.0 26.0 19.9 78 2.6 ESE 9 15 5 8 1017.4 1017.4 0.0
30/07:30pm 24.2 26.4 19.7 76 2.9 ESE 7 13 4 7 1016.9 1016.9 0.0
30/07:00pm 24.5 25.8 19.3 73 3.3 ESE 11 17 6 9 1016.6 1016.6 0.0
30/06:30pm 25.0 26.6 19.1 70 3.8 SE 9 17 5 9 1016.3 1016.3 0.0
30/06:00pm 26.0 25.5 19.2 66 4.4 E 20 28 11 15 1015.9 1015.9 0.0
30/05:30pm 26.6 26.6 19.0 63 4.9 ESE 17 32 9 17 1015.6 1015.6 0.0
30/05:00pm 27.3 27.3 18.9 60 5.4 ESE 17 28 9 15 1015.4 1015.4 0.0
30/04:30pm 28.0 26.7 18.1 55 6.3 E 22 32 12 17 1015.1 1015.1 0.0
30/04:00pm 28.6 28.1 19.0 56 6.2 ESE 20 30 11 16 1014.9 1014.9 0.0
30/03:30pm 28.3 27.4 18.1 54 6.5 ESE 20 33 11 18 1015.0 1015.0 0.0
30/03:00pm 28.6 28.0 18.4 54 6.5 ESE 19 26 10 14 1015.2 1015.2 0.0
30/02:30pm 29.3 28.7 18.4 51 7.0 ESE 19 30 10 16 1015.4 1015.4 0.0
30/02:00pm 28.8 27.4 18.0 52 6.9 ESE 22 33 12 18 1015.9 1015.9 0.0
30/01:30pm 29.1 27.7 17.9 50 7.1 E 22 37 12 20 1016.2 1016.2 0.0
30/01:00pm 28.9 27.4 16.8 48 7.6 ESE 20 28 11 15 1016.7 1016.7 0.0
30/12:30pm 29.6 27.8 17.8 49 7.5 E 24 37 13 20 1016.9 1016.9 0.0
30/12:00pm 28.4 25.7 15.7 46 7.8 ESE 24 33 13 18 1017.3 1017.3 0.0
30/11:30am 28.6 26.1 15.2 44 8.2 ESE 22 32 12 17 1017.7 1017.7 0.0
30/11:00am 28.5 26.2 14.0 41 8.7 ESE 19 28 10 15 1017.8 1017.8 0.0
30/10:30am 27.8 25.7 14.8 45 7.8 ESE 19 32 10 17 1018.2 1018.2 0.0
30/10:00am 27.6 26.4 16.2 49 7.0 ESE 17 32 9 17 1018.4 1018.4 0.0
30/09:30am 26.2 25.1 16.4 54 6.0 ESE 17 28 9 15 1018.5 1018.5 0.0
30/09:00am 25.2 25.1 17.9 64 4.6 SE 15 26 8 14 1018.4 1018.4 -
30/08:30am 24.3 24.9 18.7 71 3.5 SE 13 24 7 13 1018.1 1018.1 -
30/08:00am 22.8 23.5 18.8 78 2.5 SE 13 20 7 11 1017.8 1017.8 -

Other Formats:

Comma delimited format used in spreadsheet applications
http://www.bom.gov.au/fwo/IDD60801/IDD60801.94153.axf

JavaScript Object Notation format (JSON) in row-major order
http://www.bom.gov.au/fwo/IDD60801/IDD60801.94153.json